Time;durP1;ratioP1;P1;durP2;ratioP2;P2;SDS_P1;SDS_P2;PMS_P1;PMS_P2;Temp;Humidity;BMP_temperature;BMP_pressure;BME280_temperature;BME280_humidity;BME280_pressure;Samples;Min_cycle;Max_cycle;Signal;HPM_P1;HPM_P2
2022/03/05 00:00:40;;;;;;;17.63;10.18;;;-0.40;99.90;;;;;;5034235;28;20140;-71
2022/03/05 00:03:06;;;;;;;12.20;8.13;;;-0.50;99.90;;;;;;5051195;28;20472;-72
2022/03/05 00:05:32;;;;;;;16.10;8.77;;;-0.40;99.90;;;;;;5017646;28;20123;-71
2022/03/05 00:07:57;;;;;;;13.52;8.68;;;-0.50;99.90;;;;;;5034275;28;20041;-72
2022/03/05 00:10:24;;;;;;;13.30;7.47;;;-0.50;99.90;;;;;;5050828;28;20033;-72
2022/03/05 00:12:51;;;;;;;16.60;8.80;;;-0.50;99.90;;;;;;5034089;28;20041;-72
2022/03/05 00:15:17;;;;;;;13.38;8.00;;;-0.60;99.90;;;;;;5050589;28;20462;-70
2022/03/05 00:17:44;;;;;;;15.18;7.80;;;-0.60;99.90;;;;;;5050782;28;20550;-71
2022/03/05 00:20:10;;;;;;;12.60;7.32;;;-0.60;99.90;;;;;;5050464;28;20098;-71
2022/03/05 00:22:36;;;;;;;13.10;7.78;;;-0.80;99.90;;;;;;5034350;28;20048;-72
2022/03/05 00:25:04;;;;;;;14.75;8.48;;;-0.70;99.90;;;;;;5033880;28;20098;-72
2022/03/05 00:27:29;;;;;;;13.25;8.18;;;-0.90;99.90;;;;;;5049619;28;20055;-73
2022/03/05 00:29:55;;;;;;;16.40;8.63;;;-0.50;99.90;;;;;;5050295;28;20119;-72
2022/03/05 00:32:21;;;;;;;12.15;7.78;;;-0.70;99.90;;;;;;5050402;28;20113;-72
2022/03/05 00:34:47;;;;;;;12.27;7.55;;;-0.80;99.90;;;;;;5050591;28;20029;-72
2022/03/05 00:37:14;;;;;;;14.05;8.73;;;-0.70;99.90;;;;;;5034274;28;20485;-72
2022/03/05 00:39:39;;;;;;;12.75;7.75;;;-1.10;99.90;;;;;;5050402;28;20048;-72
2022/03/05 00:42:05;;;;;;;11.05;6.68;;;-0.80;99.90;;;;;;5050211;28;20123;-72
2022/03/05 00:44:32;;;;;;;13.15;7.75;;;-0.90;99.90;;;;;;5050291;28;20067;-72
2022/03/05 00:46:58;;;;;;;10.98;6.95;;;-0.30;99.90;;;;;;5050513;28;20488;-73
2022/03/05 00:49:23;;;;;;;12.10;7.32;;;-0.80;99.90;;;;;;5050622;28;20116;-72
2022/03/05 00:51:50;;;;;;;12.23;6.90;;;-0.40;99.90;;;;;;5050027;28;20049;-72
2022/03/05 00:54:16;;;;;;;12.48;6.43;;;-0.80;99.90;;;;;;5050390;28;20439;-72
2022/03/05 00:56:42;;;;;;;11.30;6.60;;;-1.00;99.90;;;;;;5050153;28;20075;-72
2022/03/05 00:59:08;;;;;;;12.73;7.13;;;-1.00;99.90;;;;;;5033794;28;20044;-72
2022/03/05 01:01:33;;;;;;;11.38;6.20;;;-0.80;99.90;;;;;;5033919;28;20041;-71
2022/03/05 01:03:59;;;;;;;11.30;6.60;;;-1.00;99.90;;;;;;5033454;28;20060;-71
2022/03/05 01:06:26;;;;;;;10.90;6.40;;;-0.90;99.90;;;;;;5033489;28;20507;-72
2022/03/05 01:08:52;;;;;;;13.40;7.70;;;-0.90;99.90;;;;;;5033684;28;20186;-72
2022/03/05 01:11:18;;;;;;;15.30;7.28;;;-0.80;99.90;;;;;;5033392;28;20128;-71
2022/03/05 01:13:44;;;;;;;10.95;7.18;;;-0.70;99.90;;;;;;5033601;28;20037;-71
2022/03/05 01:16:10;;;;;;;13.48;7.18;;;-0.90;99.90;;;;;;5050436;28;20429;-71
2022/03/05 01:18:36;;;;;;;12.13;7.05;;;-0.90;99.90;;;;;;5050276;28;20396;-71
2022/03/05 01:21:03;;;;;;;11.90;7.22;;;-0.80;99.90;;;;;;5016911;28;20048;-71
2022/03/05 01:23:28;;;;;;;12.43;7.22;;;-0.80;99.90;;;;;;5033304;28;20473;-71
2022/03/05 01:25:54;;;;;;;11.68;6.88;;;-0.70;99.90;;;;;;5016888;28;20047;-71
2022/03/05 01:28:20;;;;;;;11.93;6.90;;;-1.20;99.90;;;;;;5049848;28;20048;-71
2022/03/05 01:30:45;;;;;;;13.52;7.53;;;-0.90;99.90;;;;;;5049768;28;20565;-72
2022/03/05 01:33:15;;;;;;;12.93;7.10;;;-1.00;99.90;;;;;;5050286;28;20045;-70
2022/03/05 01:35:41;;;;;;;12.35;7.22;;;-1.00;99.90;;;;;;5033468;28;20033;-71
2022/03/05 01:38:07;;;;;;;10.48;6.63;;;-0.70;99.90;;;;;;5033919;28;20052;-71
2022/03/05 01:40:33;;;;;;;16.83;7.68;;;-0.90;99.90;;;;;;5037008;28;20045;-71
2022/03/05 01:42:59;;;;;;;13.07;7.32;;;-1.10;99.90;;;;;;5053783;28;20079;-71
2022/03/05 01:45:25;;;;;;;11.30;6.70;;;-1.10;99.90;;;;;;5053411;28;20037;-71
2022/03/05 01:47:51;;;;;;;12.10;7.05;;;-0.80;99.90;;;;;;5053579;28;20049;-72
2022/03/05 01:50:17;;;;;;;14.38;7.25;;;-0.90;99.90;;;;;;5053244;28;20472;-71
2022/03/05 01:52:43;;;;;;;12.43;6.57;;;-1.10;99.90;;;;;;5053439;28;20128;-71
2022/03/05 01:55:11;;;;;;;14.88;8.60;;;-1.00;99.90;;;;;;5053622;28;20056;-72
2022/03/05 01:57:37;;;;;;;14.27;7.60;;;-1.10;99.90;;;;;;5020355;28;20396;-71
2022/03/05 02:00:04;;;;;;;12.52;7.68;;;-0.90;99.90;;;;;;5053083;28;20052;-72
2022/03/05 02:02:30;;;;;;;12.60;6.93;;;-1.10;99.90;;;;;;5037007;28;20392;-73
2022/03/05 02:04:57;;;;;;;12.20;7.22;;;-1.00;99.90;;;;;;5053325;28;20060;-70
2022/03/05 02:07:23;;;;;;;12.93;7.97;;;-1.00;99.90;;;;;;5052995;28;20404;-70
2022/03/05 02:09:48;;;;;;;13.57;7.75;;;-1.00;99.90;;;;;;5052883;28;20491;-71
2022/03/05 02:12:14;;;;;;;11.13;6.60;;;-0.70;99.90;;;;;;5036899;28;20052;-71
2022/03/05 02:14:40;;;;;;;13.38;7.30;;;-1.10;99.90;;;;;;5036084;28;20037;-71
2022/03/05 02:17:05;;;;;;;12.88;7.05;;;-1.10;99.90;;;;;;5036243;28;20037;-72
2022/03/05 02:19:31;;;;;;;14.90;7.85;;;-1.00;99.90;;;;;;5036235;28;20048;-71
2022/03/05 02:21:57;;;;;;;12.48;7.22;;;-1.10;99.90;;;;;;5052783;28;20423;-71
2022/03/05 02:24:32;;;;;;;14.52;7.72;;;-0.90;99.90;;;;;;5036701;28;20033;-71
2022/03/05 02:27:03;;;;;;;12.93;8.02;;;-1.00;99.90;;;;;;5035972;28;20040;-71
2022/03/05 02:29:31;;;;;;;14.75;7.78;;;-1.10;99.90;;;;;;5035970;28;20124;-71
2022/03/05 02:31:57;;;;;;;18.13;8.57;;;-1.10;99.90;;;;;;5036064;28;20408;-71
2022/03/05 02:34:23;;;;;;;10.82;6.82;;;-1.20;99.90;;;;;;5035929;28;20041;-72
2022/03/05 02:36:48;;;;;;;13.73;7.68;;;-0.70;99.90;;;;;;5036351;28;20480;-72
2022/03/05 02:39:14;;;;;;;15.35;7.70;;;-0.80;99.90;;;;;;5052522;28;20047;-72
2022/03/05 02:41:40;;;;;;;12.65;7.05;;;-1.00;99.90;;;;;;5052280;28;20041;-72
2022/03/05 02:44:06;;;;;;;12.32;7.40;;;-1.20;99.90;;;;;;5019371;28;20148;-72
2022/03/05 02:46:34;;;;;;;12.73;7.28;;;-0.90;99.90;;;;;;5035670;28;20416;-72
2022/03/05 02:49:01;;;;;;;12.38;6.95;;;-1.10;99.90;;;;;;5052066;28;20071;-72
2022/03/05 02:51:26;;;;;;;13.23;8.20;;;-0.60;99.90;;;;;;5051184;28;20496;-72
2022/03/05 02:53:52;;;;;;;13.95;7.80;;;-1.00;99.90;;;;;;5035582;28;20052;-72
2022/03/05 02:56:18;;;;;;;11.50;7.15;;;-1.10;99.90;;;;;;5035568;28;20070;-71
2022/03/05 02:58:44;;;;;;;12.02;7.57;;;-1.10;99.90;;;;;;5051997;28;20048;-72
2022/03/05 03:01:09;;;;;;;13.38;6.82;;;-1.20;99.90;;;;;;5035730;28;20072;-74
2022/03/05 03:03:35;;;;;;;12.07;6.68;;;-0.40;99.90;;;;;;5035742;28;20511;-74
2022/03/05 03:06:01;;;;;;;12.05;7.57;;;-1.10;99.90;;;;;;5052000;28;20048;-74
2022/03/05 03:08:27;;;;;;;11.18;6.28;;;-1.00;99.90;;;;;;5051918;28;20398;-74
2022/03/05 03:10:52;;;;;;;11.10;7.13;;;-1.10;99.90;;;;;;5051771;28;20446;-73
2022/03/05 03:13:18;;;;;;;11.57;6.93;;;-1.00;99.90;;;;;;5035294;28;20610;-73
2022/03/05 03:15:44;;;;;;;12.05;7.20;;;-1.10;99.90;;;;;;5034998;28;20128;-73
2022/03/05 03:18:10;;;;;;;14.10;7.15;;;-1.20;99.90;;;;;;5035068;28;20045;-73
2022/03/05 03:20:35;;;;;;;10.98;6.60;;;-0.30;99.90;;;;;;5035062;28;20451;-72
2022/03/05 03:23:01;;;;;;;14.88;7.13;;;-1.20;99.90;;;;;;5034949;28;20051;-73
2022/03/05 03:25:27;;;;;;;14.40;7.10;;;-1.20;99.90;;;;;;5018527;28;20047;-73
2022/03/05 03:27:53;;;;;;;12.30;7.00;;;-1.30;99.90;;;;;;5051430;28;20091;-74
2022/03/05 03:30:19;;;;;;;12.23;7.05;;;-1.20;99.90;;;;;;5051782;28;20037;-74
2022/03/05 03:32:45;;;;;;;13.98;7.07;;;-1.50;99.90;;;;;;5034952;28;20065;-73
2022/03/05 03:35:13;;;;;;;12.07;7.75;;;-1.40;99.90;;;;;;5051456;28;20047;-74
2022/03/05 03:37:40;;;;;;;12.85;7.60;;;-1.30;99.90;;;;;;5051378;28;20041;-73
2022/03/05 03:40:09;;;;;;;12.07;7.45;;;-1.30;99.90;;;;;;5051313;28;20088;-73
2022/03/05 03:42:35;;;;;;;12.68;8.15;;;-1.50;99.90;;;;;;5051192;28;20084;-73
2022/03/05 03:45:02;;;;;;;10.35;6.80;;;-1.50;99.90;;;;;;5035124;28;20051;-73
2022/03/05 03:47:27;;;;;;;11.35;7.47;;;-1.40;99.90;;;;;;5051294;28;20455;-73
2022/03/05 03:49:53;;;;;;;12.77;7.50;;;-1.20;99.90;;;;;;5034372;28;20037;-74
2022/03/05 03:52:19;;;;;;;12.55;7.03;;;-1.50;99.90;;;;;;5017785;28;20080;-74
2022/03/05 03:54:46;;;;;;;13.25;7.65;;;-1.40;99.90;;;;;;5034313;28;20408;-73
2022/03/05 03:57:12;;;;;;;13.20;7.30;;;-1.50;99.90;;;;;;5051228;28;20403;-73
2022/03/05 03:59:38;;;;;;;13.60;7.90;;;-1.20;99.90;;;;;;5034446;28;20048;-73
2022/03/05 04:02:05;;;;;;;13.27;7.63;;;-1.40;99.90;;;;;;5034482;28;20041;-74
2022/03/05 04:04:31;;;;;;;12.77;8.05;;;-1.60;99.90;;;;;;5051232;28;20041;-73
2022/03/05 04:09:41;;;;;;;13.55;7.00;;;-1.70;99.90;;;;;;5036978;28;20404;-73
2022/03/05 04:12:08;;;;;;;13.35;7.57;;;-1.70;99.90;;;;;;5050733;28;20049;-73
2022/03/05 04:14:34;;;;;;;14.48;7.35;;;-1.90;99.90;;;;;;5050616;28;20041;-74
2022/03/05 04:17:00;;;;;;;13.02;8.00;;;-1.70;99.90;;;;;;5050582;28;20466;-73
2022/03/05 04:19:26;;;;;;;12.30;7.25;;;-1.90;99.90;;;;;;5050674;28;20073;-74
2022/03/05 04:21:52;;;;;;;13.55;7.35;;;-1.70;99.90;;;;;;5034191;28;20037;-74
2022/03/05 04:24:17;;;;;;;12.13;7.50;;;-1.80;99.90;;;;;;5050704;28;20080;-74
2022/03/05 04:26:43;;;;;;;10.80;7.15;;;-1.40;99.90;;;;;;5033992;28;20424;-73
2022/03/05 04:29:09;;;;;;;12.52;7.75;;;-1.80;99.90;;;;;;5050407;28;20412;-74
2022/03/05 04:31:34;;;;;;;12.15;8.30;;;-1.60;99.90;;;;;;5017464;28;20446;-73
2022/03/05 04:34:00;;;;;;;15.07;8.13;;;-2.00;99.90;;;;;;5051751;28;20457;-73
2022/03/05 04:36:26;;;;;;;16.08;8.30;;;-1.70;99.90;;;;;;5034017;28;20087;-73
2022/03/05 04:38:52;;;;;;;11.32;7.72;;;-2.00;99.90;;;;;;5034355;28;20131;-73
2022/03/05 04:41:17;;;;;;;14.38;8.05;;;-1.50;99.90;;;;;;5050401;28;20049;-73
2022/03/05 04:43:43;;;;;;;14.55;8.35;;;-1.80;99.90;;;;;;5017507;28;20408;-73
2022/03/05 04:46:09;;;;;;;10.15;7.10;;;;;;;;;;5034134;28;20045;-74
2022/03/05 04:48:35;;;;;;;16.05;8.65;;;-1.90;99.90;;;;;;5033775;28;20037;-74
2022/03/05 04:51:01;;;;;;;13.05;8.20;;;-1.90;99.90;;;;;;5033579;28;20041;-76
2022/03/05 04:53:26;;;;;;;14.27;8.10;;;-2.10;99.90;;;;;;5050197;28;20055;-76
2022/03/05 04:55:52;;;;;;;12.40;7.45;;;-1.60;99.90;;;;;;5050708;28;20041;-76
2022/03/05 04:58:18;;;;;;;15.68;8.07;;;-1.80;99.90;;;;;;5034201;28;20045;-76
2022/03/05 05:00:44;;;;;;;14.50;8.20;;;-1.80;99.90;;;;;;5050175;28;20135;-76
2022/03/05 05:03:10;;;;;;;13.82;8.02;;;-2.00;99.90;;;;;;5033657;28;20128;-75
2022/03/05 05:05:36;;;;;;;12.77;8.02;;;;;;;;;;5050578;28;20041;-76
2022/03/05 05:08:02;;;;;;;13.52;7.85;;;;;;;;;;5050728;28;20114;-76
2022/03/05 05:10:28;;;;;;;12.35;7.35;;;;;;;;;;5050255;28;20084;-76
2022/03/05 05:12:54;;;;;;;11.82;7.63;;;;;;;;;;5050735;28;20037;-76
2022/03/05 05:15:20;;;;;;;12.23;7.60;;;;;;;;;;5054504;28;20488;-76
2022/03/05 05:17:46;;;;;;;14.75;8.20;;;;;;;;;;5053965;28;20041;-74
2022/03/05 05:20:13;;;;;;;11.80;6.57;;;;;;;;;;5037623;28;20515;-75
2022/03/05 05:22:39;;;;;;;13.85;7.90;;;;;;;;;;5037485;28;20084;-75
2022/03/05 05:25:06;;;;;;;12.30;7.43;;;;;;;;;;5053964;28;20051;-75
2022/03/05 05:27:36;;;;;;;13.40;7.65;;;;;;;;;;5037427;28;20049;-75
2022/03/05 05:30:03;;;;;;;11.57;7.05;;;;;;;;;;5037251;28;20047;-75
2022/03/05 05:32:29;;;;;;;10.68;7.20;;;;;;;;;;5054225;28;20041;-76
2022/03/05 05:34:56;;;;;;;11.15;6.97;;;;;;;;;;5037478;28;20039;-76
2022/03/05 05:37:22;;;;;;;12.35;7.47;;;;;;;;;;5054196;28;20079;-76
2022/03/05 05:39:48;;;;;;;12.07;7.78;;;;;;;;;;5020944;28;20152;-76
2022/03/05 05:42:14;;;;;;;13.93;7.70;;;;;;;;;;5037183;28;20527;-76
2022/03/05 05:44:40;;;;;;;11.60;7.50;;;;;;;;;;5053405;28;20124;-74
2022/03/05 05:47:07;;;;;;;13.02;7.35;;;;;;;;;;5053464;28;20044;-75
2022/03/05 05:49:33;;;;;;;12.63;7.15;;;;;;;;;;5020447;28;20098;-74
2022/03/05 05:51:59;;;;;;;15.30;8.02;;;;;;;;;;5037030;28;20056;-74
2022/03/05 05:54:25;;;;;;;15.20;7.65;;;;;;;;;;5053423;28;20160;-76
2022/03/05 05:56:51;;;;;;;14.45;7.63;;;;;;;;;;5036991;28;20041;-76
2022/03/05 05:59:17;;;;;;;12.80;7.63;;;;;;;;;;5053451;28;20044;-75
2022/03/05 06:01:43;;;;;;;15.38;7.22;;;;;;;;;;5053500;28;20122;-76
2022/03/05 06:04:09;;;;;;;13.68;7.85;;;;;;;;;;5020253;28;20044;-76
2022/03/05 06:06:35;;;;;;;12.40;7.75;;;;;;;;;;5036583;28;20045;-76
2022/03/05 06:09:01;;;;;;;11.68;7.00;;;;;;;;;;5052977;28;20108;-74
2022/03/05 06:11:29;;;;;;;12.57;7.28;;;;;;;;;;5053014;28;20433;-75
2022/03/05 06:13:55;;;;;;;14.27;8.50;;;;;;;;;;5052932;28;20045;-76
2022/03/05 06:16:21;;;;;;;13.15;8.13;;;;;;;;;;5053136;28;20120;-76
2022/03/05 06:18:48;;;;;;;12.20;7.27;;;;;;;;;;5036357;28;20041;-76
2022/03/05 06:21:14;;;;;;;11.10;7.70;;;;;;;;;;5052792;28;20408;-76
2022/03/05 06:23:40;;;;;;;11.85;7.18;;;;;;;;;;5052996;28;20044;-75
2022/03/05 06:26:07;;;;;;;13.15;7.72;;;;;;;;;;5051758;28;20469;-76
2022/03/05 06:28:33;;;;;;;12.98;7.50;;;;;;;;;;5052682;28;20128;-76
2022/03/05 06:30:59;;;;;;;14.20;7.72;;;;;;;;;;5052800;28;20446;-75
2022/03/05 06:33:25;;;;;;;12.20;7.47;;;;;;;;;;5035926;28;20045;-75
2022/03/05 06:35:51;;;;;;;13.00;7.50;;;-1.90;99.90;;;;;;5036333;28;20056;-75
2022/03/05 06:38:17;;;;;;;14.15;8.30;;;;;;;;;;5036230;28;20208;-74
2022/03/05 06:40:44;;;;;;;13.23;7.25;;;-1.80;99.90;;;;;;5036047;28;20142;-77
2022/03/05 06:43:10;;;;;;;13.07;7.55;;;-1.80;99.90;;;;;;5035678;28;20053;-75
2022/03/05 06:45:36;;;;;;;10.50;7.03;;;-1.60;99.90;;;;;;5035606;28;20044;-75
2022/03/05 06:48:03;;;;;;;13.98;7.45;;;-1.60;99.90;;;;;;5052287;28;20488;-77
2022/03/05 06:50:29;;;;;;;14.18;7.25;;;-1.70;99.90;;;;;;5052077;28;20041;-76
2022/03/05 06:52:55;;;;;;;11.33;7.00;;;-1.50;99.90;;;;;;5035429;28;20045;-76
2022/03/05 06:55:23;;;;;;;13.13;6.95;;;-1.50;99.90;;;;;;5052345;28;20095;-75
2022/03/05 06:57:49;;;;;;;12.13;6.97;;;-1.60;99.90;;;;;;5035762;28;20399;-75
2022/03/05 07:00:15;;;;;;;13.55;6.95;;;-1.60;99.90;;;;;;5052409;28;20052;-74
2022/03/05 07:02:42;;;;;;;13.98;7.85;;;-1.50;99.90;;;;;;5052205;28;20132;-76
2022/03/05 07:05:09;;;;;;;11.88;7.20;;;-1.50;99.90;;;;;;5052030;28;20048;-76
2022/03/05 07:07:35;;;;;;;15.63;7.90;;;-1.30;99.90;;;;;;5052019;28;20084;-75
2022/03/05 07:10:02;;;;;;;10.50;6.88;;;-1.20;99.90;;;;;;5052114;28;20412;-75
2022/03/05 07:12:27;;;;;;;14.23;8.05;;;-1.10;99.90;;;;;;5035362;28;20072;-75
2022/03/05 07:14:53;;;;;;;13.93;7.00;;;-1.20;99.90;;;;;;5051743;28;20495;-75
2022/03/05 07:17:19;;;;;;;12.35;7.03;;;-0.90;99.90;;;;;;5051743;28;20045;-76
2022/03/05 07:19:45;;;;;;;11.43;7.05;;;-1.00;99.90;;;;;;5051844;28;20041;-75
2022/03/05 07:22:11;;;;;;;9.90;6.82;;;-0.90;99.90;;;;;;5051606;28;20101;-75
2022/03/05 07:24:37;;;;;;;10.82;7.15;;;-0.70;99.90;;;;;;5051742;28;20041;-76
2022/03/05 07:27:03;;;;;;;12.25;6.80;;;-0.50;99.90;;;;;;5052086;28;20045;-75
2022/03/05 07:29:29;;;;;;;15.10;7.60;;;-0.40;99.90;;;;;;5034952;28;20052;-75
2022/03/05 07:31:55;;;;;;;12.88;7.03;;;-0.40;99.90;;;;;;5051463;28;20448;-74
2022/03/05 07:34:21;;;;;;;13.65;7.85;;;-0.40;99.90;;;;;;5034883;28;20415;-75
2022/03/05 07:36:46;;;;;;;15.35;7.88;;;-0.30;99.90;;;;;;5051324;28;20041;-75
2022/03/05 07:39:12;;;;;;;13.63;8.75;;;0.30;99.90;;;;;;5035440;28;20033;-74
2022/03/05 07:41:38;;;;;;;13.70;7.38;;;-0.10;99.90;;;;;;5051377;28;20171;-75
2022/03/05 07:44:05;;;;;;;15.45;7.65;;;0.00;99.90;;;;;;5034867;28;20041;-75
2022/03/05 07:46:32;;;;;;;18.35;8.65;;;0.00;99.90;;;;;;5034694;28;20507;-75
2022/03/05 07:48:58;;;;;;;11.68;6.80;;;0.00;99.90;;;;;;5051216;28;20049;-75
2022/03/05 07:51:24;;;;;;;16.75;8.10;;;0.30;99.90;;;;;;5034601;28;20041;-75
2022/03/05 07:53:50;;;;;;;12.80;7.78;;;0.50;99.90;;;;;;5034589;28;20474;-75
2022/03/05 07:56:15;;;;;;;12.30;7.97;;;0.60;99.90;;;;;;5034547;28;20408;-75
2022/03/05 07:58:41;;;;;;;14.55;8.63;;;0.70;99.90;;;;;;5034442;28;20382;-75
2022/03/05 08:01:07;;;;;;;14.10;8.18;;;0.70;99.90;;;;;;5051426;28;20075;-74
2022/03/05 08:03:33;;;;;;;13.75;8.02;;;0.80;99.90;;;;;;5050952;28;20040;-75
2022/03/05 08:05:59;;;;;;;13.73;8.55;;;1.00;99.90;;;;;;5018038;28;20041;-75
2022/03/05 08:08:25;;;;;;;13.88;8.05;;;1.00;99.90;;;;;;5051133;28;20477;-75
2022/03/05 08:10:51;;;;;;;14.82;8.40;;;1.20;99.90;;;;;;5051073;28;20123;-75
2022/03/05 08:13:17;;;;;;;15.02;8.98;;;1.90;99.90;;;;;;5034145;28;20041;-74
2022/03/05 08:15:42;;;;;;;18.65;9.40;;;1.70;99.90;;;;;;5051027;28;20037;-74
2022/03/05 08:18:08;;;;;;;18.40;9.10;;;1.30;99.90;;;;;;5017914;28;20090;-75
2022/03/05 08:20:34;;;;;;;13.50;8.30;;;1.60;99.90;;;;;;5051194;28;20041;-74
2022/03/05 08:23:00;;;;;;;17.20;8.95;;;1.40;99.90;;;;;;5050746;28;20051;-75
2022/03/05 08:25:27;;;;;;;20.48;9.73;;;1.50;99.90;;;;;;5034356;28;20072;-74
2022/03/05 08:27:52;;;;;;;15.50;9.55;;;1.50;99.90;;;;;;5050759;28;20044;-75
2022/03/05 08:30:19;;;;;;;15.32;9.00;;;1.90;99.90;;;;;;5050612;28;20457;-75
2022/03/05 08:32:45;;;;;;;21.58;10.00;;;2.00;99.90;;;;;;5050689;28;20417;-75
2022/03/05 08:35:12;;;;;;;18.75;9.52;;;2.00;99.90;;;;;;5033968;28;20032;-75
2022/03/05 08:37:38;;;;;;;18.58;9.70;;;2.10;99.90;;;;;;5050399;28;20040;-75
2022/03/05 08:40:06;;;;;;;15.93;9.27;;;2.00;99.90;;;;;;5050385;28;20056;-74
2022/03/05 08:42:32;;;;;;;17.38;10.05;;;2.10;99.90;;;;;;5050356;28;20048;-75
2022/03/05 08:44:58;;;;;;;17.35;9.95;;;2.20;99.90;;;;;;5033541;28;20412;-75
2022/03/05 08:47:24;;;;;;;18.65;10.65;;;2.30;99.90;;;;;;5033275;28;20088;-75
2022/03/05 08:49:50;;;;;;;16.50;10.25;;;2.40;99.90;;;;;;5050220;28;20080;-75
2022/03/05 08:52:16;;;;;;;19.60;10.65;;;2.40;99.90;;;;;;5050439;28;20048;-75
2022/03/05 08:54:42;;;;;;;16.25;10.70;;;2.50;99.90;;;;;;5017605;28;20454;-77
2022/03/05 08:57:09;;;;;;;17.95;9.60;;;2.60;99.90;;;;;;5050744;28;20055;-75
2022/03/05 08:59:35;;;;;;;14.85;9.63;;;2.70;99.90;;;;;;5034109;28;20067;-75
2022/03/05 09:02:01;;;;;;;18.67;11.38;;;2.80;99.90;;;;;;5033756;28;20044;-75
2022/03/05 09:04:27;;;;;;;19.08;11.40;;;2.80;99.90;;;;;;5050185;28;20052;-75
2022/03/05 09:06:53;;;;;;;16.52;10.82;;;2.90;99.90;;;;;;5049994;28;20041;-75
2022/03/05 09:09:19;;;;;;;22.58;11.70;;;2.90;99.90;;;;;;5050287;28;20398;-75
2022/03/05 09:11:45;;;;;;;17.35;11.40;;;3.50;99.90;;;;;;5033313;28;20041;-75
2022/03/05 09:14:11;;;;;;;18.83;10.82;;;4.20;99.90;;;;;;5050574;28;20037;-75
2022/03/05 09:16:40;;;;;;;18.88;10.52;;;3.00;99.90;;;;;;5001160;28;20039;-76
2022/03/05 09:19:07;;;;;;;19.58;11.55;;;2.90;99.90;;;;;;5050344;28;20481;-75
2022/03/05 09:21:37;;;;;;;20.38;11.40;;;3.00;99.90;;;;;;5050008;28;20045;-75
2022/03/05 09:24:04;;;;;;;17.33;10.52;;;3.00;99.90;;;;;;5049887;28;20045;-75
2022/03/05 09:26:31;;;;;;;21.50;11.88;;;3.00;99.90;;;;;;5050281;28;20048;-75
2022/03/05 09:28:56;;;;;;;20.30;11.27;;;3.80;99.90;;;;;;5049869;28;20049;-76
2022/03/05 09:31:22;;;;;;;20.52;12.23;;;4.00;99.90;;;;;;5017175;28;20128;-76
2022/03/05 09:33:48;;;;;;;21.92;11.43;;;3.20;99.90;;;;;;5033205;28;20072;-76
2022/03/05 09:36:14;;;;;;;18.33;10.43;;;3.30;99.90;;;;;;5049915;28;20041;-76
2022/03/05 09:38:39;;;;;;;19.88;10.98;;;3.40;99.90;;;;;;5033576;28;20056;-76
2022/03/05 09:41:06;;;;;;;20.75;11.70;;;3.40;99.90;;;;;;5000610;28;20095;-75
2022/03/05 09:43:33;;;;;;;21.63;12.45;;;3.40;99.90;;;;;;5050213;28;20088;-75
2022/03/05 09:45:59;;;;;;;21.15;11.52;;;4.00;99.90;;;;;;5049852;28;20088;-75
2022/03/05 09:48:30;;;;;;;20.92;12.32;;;3.50;99.90;;;;;;5033193;28;20049;-76
2022/03/05 09:50:56;;;;;;;18.77;11.63;;;3.60;99.90;;;;;;5049546;28;20413;-74
2022/03/05 09:53:28;;;;;;;20.30;11.60;;;3.70;99.90;;;;;;5033202;28;20056;-75
2022/03/05 09:55:54;;;;;;;21.00;12.20;;;3.80;99.90;;;;;;5049800;28;20040;-76
2022/03/05 09:58:20;;;;;;;21.38;12.00;;;4.30;99.90;;;;;;5033045;28;20040;-76
2022/03/05 10:00:45;;;;;;;18.27;11.35;;;4.00;99.90;;;;;;5036411;28;20115;-76
2022/03/05 10:03:15;;;;;;;20.27;11.90;;;4.50;99.90;;;;;;5053510;28;20435;-76
2022/03/05 10:05:41;;;;;;;20.08;12.02;;;4.10;99.90;;;;;;5036897;28;20132;-76
2022/03/05 10:08:20;;;;;;;21.55;12.05;;;4.10;99.90;;;;;;5036370;28;20560;-76
2022/03/05 10:10:54;;;;;;;23.13;13.00;;;4.70;99.90;;;;;;5052999;28;20064;-76
2022/03/05 10:13:30;;;;;;;25.63;11.63;;;4.40;99.90;;;;;;5053230;28;20488;-75
2022/03/05 10:16:01;;;;;;;23.02;13.23;;;4.40;99.90;;;;;;5053083;28;20064;-75
2022/03/05 10:18:30;;;;;;;;;;;4.80;99.90;;;;;;5053732;28;20397;-76
2022/03/05 10:20:57;;;;;;;21.50;12.55;;;4.60;99.90;;;;;;5052773;28;20331;-76
2022/03/05 10:23:24;;;;;;;22.30;12.60;;;4.70;99.90;;;;;;5036300;28;20037;-75
2022/03/05 10:25:55;;;;;;;20.65;13.20;;;4.70;99.90;;;;;;5052723;28;20198;-76
2022/03/05 10:28:28;;;;;;;20.38;13.07;;;4.80;99.90;;;;;;5036339;28;20052;-74
2022/03/05 10:31:03;;;;;;;21.33;12.98;;;4.90;99.90;;;;;;5052834;28;20083;-76
2022/03/05 10:33:36;;;;;;;21.27;13.02;;;5.30;99.90;;;;;;5052631;28;20132;-75
2022/03/05 10:36:16;;;;;;;21.60;12.07;;;5.20;99.90;;;;;;5052966;28;20037;-76
2022/03/05 10:38:45;;;;;;;20.85;12.32;;;6.00;99.90;;;;;;5052807;28;20029;-76
2022/03/05 10:41:11;;;;;;;22.33;12.75;;;5.40;99.90;;;;;;5052520;28;20514;-76
2022/03/05 10:43:37;;;;;;;20.10;12.15;;;5.50;99.90;;;;;;5052664;28;20404;-76
2022/03/05 10:46:03;;;;;;;24.83;14.05;;;5.60;99.90;;;;;;5052220;28;20040;-75
2022/03/05 10:48:31;;;;;;;20.83;11.95;;;5.70;99.90;;;;;;5036496;28;20511;-76
2022/03/05 10:50:58;;;;;;;22.15;13.52;;;5.60;99.90;;;;;;5035603;28;20068;-75
2022/03/05 10:53:47;;;;;;;24.05;13.38;;;6.30;99.90;;;;;;5035813;28;20067;-76
2022/03/05 10:56:31;;;;;;;22.35;13.73;;;5.70;99.90;;;;;;5052324;28;20037;-75
2022/03/05 10:59:04;;;;;;;22.70;13.52;;;5.70;99.90;;;;;;5052293;28;20094;-75
2022/03/05 11:01:31;;;;;;;22.92;13.43;;;5.90;99.90;;;;;;5052646;28;20561;-75
2022/03/05 11:03:57;;;;;;;22.67;14.10;;;6.70;99.90;;;;;;5035755;28;20500;-75
2022/03/05 11:06:24;;;;;;;22.08;12.88;;;6.00;99.90;;;;;;5035898;28;20461;-75
2022/03/05 11:08:50;;;;;;;22.13;12.95;;;6.00;99.90;;;;;;5052428;28;20037;-76
2022/03/05 11:11:19;;;;;;;22.65;13.55;;;6.30;99.90;;;;;;5034788;28;20037;-76
2022/03/05 11:13:45;;;;;;;23.25;13.10;;;6.00;99.90;;;;;;5052243;28;20048;-75
2022/03/05 11:16:11;;;;;;;25.50;14.02;;;6.10;99.90;;;;;;5018906;28;20202;-75
2022/03/05 11:18:38;;;;;;;22.40;13.00;;;;;;;;;;5052019;28;20053;-76
2022/03/05 11:21:04;;;;;;;22.45;13.90;;;6.30;99.90;;;;;;5051806;28;20092;-74
2022/03/05 11:23:31;;;;;;;22.27;14.02;;;6.70;99.90;;;;;;5035215;28;20044;-75
2022/03/05 11:25:59;;;;;;;22.10;14.75;;;6.30;99.90;;;;;;5034972;28;20052;-75
2022/03/05 11:28:32;;;;;;;24.10;12.82;;;6.30;99.90;;;;;;5051779;28;20041;-76
2022/03/05 11:30:59;;;;;;;22.40;13.85;;;6.40;99.90;;;;;;5051615;28;20041;-76
2022/03/05 11:33:43;;;;;;;20.83;13.57;;;6.40;99.90;;;;;;5035403;28;20044;-75
2022/03/05 11:36:22;;;;;;;24.85;15.15;;;6.50;99.90;;;;;;5051442;28;20163;-76
2022/03/05 11:38:48;;;;;;;24.52;14.40;;;6.70;99.90;;;;;;5051806;28;20136;-75
2022/03/05 11:41:25;;;;;;;24.05;15.07;;;6.80;99.90;;;;;;5034730;28;20179;-76
2022/03/05 11:43:51;;;;;;;23.52;15.00;;;7.00;99.90;;;;;;5035115;28;20052;-77
2022/03/05 11:46:27;;;;;;;25.77;14.82;;;7.00;99.90;;;;;;5051717;28;20040;-76
2022/03/05 11:49:05;;;;;;;22.90;13.52;;;7.40;99.90;;;;;;5051584;28;20435;-76
2022/03/05 11:51:32;;;;;;;21.25;13.65;;;7.40;99.90;;;;;;5052404;28;20048;-75
2022/03/05 11:54:14;;;;;;;22.27;13.90;;;7.90;99.90;;;;;;5051082;28;20098;-76
2022/03/05 11:57:00;;;;;;;25.08;14.23;;;7.40;99.90;;;;;;5034878;28;20044;-76
2022/03/05 11:59:34;;;;;;;22.48;14.88;;;7.50;99.90;;;;;;5051113;28;20041;-75
2022/03/05 12:02:00;;;;;;;21.65;14.57;;;7.70;99.90;;;;;;5051027;28;20052;-75
2022/03/05 12:04:28;;;;;;;21.10;13.52;;;7.80;99.90;;;;;;5034904;28;20067;-77
2022/03/05 12:07:13;;;;;;;21.17;13.25;;;8.10;99.90;;;;;;5034548;28;20508;-75
2022/03/05 12:09:45;;;;;;;18.85;13.10;;;8.30;99.90;;;;;;5034736;28;20047;-76
2022/03/05 12:12:18;;;;;;;20.58;13.45;;;8.40;99.90;;;;;;5018460;28;20045;-76
2022/03/05 12:15:07;;;;;;;24.63;14.55;;;8.80;99.90;;;;;;5051160;28;20695;-76
2022/03/05 12:17:38;;;;;;;21.90;14.70;;;8.60;99.90;;;;;;5040887;28;20066;-76
2022/03/05 12:20:05;;;;;;;21.40;14.30;;;;;;;;;;5034621;28;20045;-76
2022/03/05 12:22:31;;;;;;;21.92;14.48;;;8.90;99.90;;;;;;5049898;28;20045;-76
2022/03/05 12:24:57;;;;;;;23.33;15.48;;;8.90;99.90;;;;;;5033936;28;20045;-75
2022/03/05 12:27:27;;;;;;;21.48;14.35;;;9.30;99.90;;;;;;5051081;28;20047;-76
2022/03/05 12:29:53;;;;;;;21.23;14.65;;;9.30;99.90;;;;;;5050603;28;20091;-76
2022/03/05 12:32:20;;;;;;;23.20;15.27;;;9.50;99.90;;;;;;5034378;28;20052;-75
2022/03/05 12:34:46;;;;;;;23.48;14.20;;;9.60;99.90;;;;;;5051256;28;20379;-76
2022/03/05 12:37:12;;;;;;;19.77;13.93;;;9.80;99.90;;;;;;5017644;28;20037;-76
2022/03/05 12:39:42;;;;;;;24.80;14.95;;;9.80;99.90;;;;;;5018074;28;20041;-75
2022/03/05 12:42:08;;;;;;;22.17;15.37;;;9.80;99.90;;;;;;5034120;28;20091;-75
2022/03/05 12:44:35;;;;;;;21.38;14.90;;;9.70;99.90;;;;;;5017487;28;20283;-75
2022/03/05 12:47:01;;;;;;;21.83;14.85;;;9.80;99.90;;;;;;5034331;28;20373;-76
2022/03/05 12:49:26;;;;;;;21.88;14.75;;;9.90;99.90;;;;;;5050428;28;20045;-75
2022/03/05 12:51:52;;;;;;;21.20;13.88;;;10.00;99.90;;;;;;5033419;28;20500;-75